createdAt,value
2022-11-20T00:03:45.164Z,22.68
2022-11-20T00:08:49.707Z,22.67
2022-11-20T00:13:54.199Z,22.67
2022-11-20T00:18:57.158Z,22.70
2022-11-20T00:24:01.531Z,22.67
2022-11-20T00:29:04.876Z,22.66
2022-11-20T00:34:07.757Z,22.68
2022-11-20T00:39:11.911Z,22.66
2022-11-20T00:44:14.708Z,22.66
2022-11-20T00:49:17.583Z,22.66
2022-11-20T00:54:21.799Z,22.65
2022-11-20T00:59:24.807Z,22.67
2022-11-20T01:04:27.542Z,22.65
2022-11-20T01:09:31.642Z,22.65
2022-11-20T01:14:34.403Z,22.65
2022-11-20T01:19:37.171Z,22.66
2022-11-20T01:24:41.335Z,22.64
2022-11-20T01:29:44.034Z,22.63
2022-11-20T01:34:47.101Z,22.65
2022-11-20T01:39:51.189Z,22.65
2022-11-20T01:44:58.158Z,22.64
2022-11-20T01:50:04.990Z,22.65
2022-11-20T01:55:13.114Z,22.66
2022-11-20T02:00:18.295Z,22.65
2022-11-20T02:05:27.692Z,22.66
2022-11-20T02:10:32.058Z,22.64
2022-11-20T02:15:35.732Z,22.62
2022-11-20T02:20:39.037Z,22.60
2022-11-20T02:25:45.535Z,22.57
2022-11-20T02:30:48.272Z,22.48
2022-11-20T02:35:51.224Z,22.39
2022-11-20T02:40:55.855Z,22.30
2022-11-20T02:45:58.821Z,22.17
2022-11-20T02:51:01.583Z,22.09
2022-11-20T02:56:06.405Z,21.98
2022-11-20T03:01:09.209Z,21.88
2022-11-20T03:06:12.191Z,21.81
2022-11-20T03:11:16.843Z,21.74
2022-11-20T03:16:22.080Z,21.68
2022-11-20T03:21:24.880Z,21.61
2022-11-20T03:26:29.151Z,21.54
2022-11-20T03:31:33.424Z,21.47
2022-11-20T03:36:36.528Z,21.40
2022-11-20T03:41:43.088Z,21.32
2022-11-20T03:46:45.828Z,21.28
2022-11-20T03:51:48.677Z,21.21
2022-11-20T03:56:52.796Z,21.14
2022-11-20T04:01:55.588Z,21.06
2022-11-20T04:06:58.445Z,21.00
2022-11-20T04:12:02.588Z,20.92
2022-11-20T04:17:05.572Z,20.87
2022-11-20T04:22:08.354Z,20.83
2022-11-20T04:27:12.474Z,20.76
2022-11-20T04:32:15.262Z,20.72
2022-11-20T04:37:17.991Z,20.67
2022-11-20T04:42:30.791Z,20.64
2022-11-20T04:47:33.534Z,20.57
2022-11-20T04:52:36.393Z,20.53
2022-11-20T04:57:40.540Z,20.47
2022-11-20T05:02:43.320Z,20.42
2022-11-20T05:07:46.095Z,20.39
2022-11-20T05:12:50.242Z,20.35
2022-11-20T05:17:54.109Z,20.31
2022-11-20T05:22:58.757Z,20.27
2022-11-20T05:28:02.913Z,20.26
2022-11-20T05:33:05.651Z,20.22
2022-11-20T05:38:08.448Z,20.17
2022-11-20T05:43:12.558Z,20.14
2022-11-20T05:48:15.289Z,20.15
2022-11-20T05:53:18.023Z,20.13
2022-11-20T05:58:22.083Z,20.08
2022-11-20T06:03:24.825Z,20.07
2022-11-20T06:08:27.576Z,20.05
2022-11-20T06:13:31.640Z,20.02
2022-11-20T06:18:34.445Z,19.99
2022-11-20T06:23:38.384Z,19.98
2022-11-20T06:28:43.011Z,19.95
2022-11-20T06:33:46.258Z,19.92
2022-11-20T06:38:49.894Z,19.91
2022-11-20T06:43:54.044Z,19.87
2022-11-20T06:48:56.781Z,19.84
2022-11-20T06:53:59.548Z,19.84
2022-11-20T06:59:07.827Z,19.77
2022-11-20T07:04:10.591Z,19.78
2022-11-20T07:09:13.365Z,19.75
2022-11-20T07:14:17.484Z,19.76
2022-11-20T07:19:20.583Z,19.73
2022-11-20T07:24:23.599Z,19.73
2022-11-20T07:29:27.718Z,19.70
2022-11-20T07:34:30.451Z,19.70
2022-11-20T07:39:33.210Z,19.68
2022-11-20T07:44:37.644Z,19.70
2022-11-20T07:49:40.405Z,19.72
2022-11-20T07:54:43.240Z,19.73
2022-11-20T07:59:47.480Z,19.71
2022-11-20T08:04:50.282Z,19.73
2022-11-20T08:09:53.046Z,19.72
2022-11-20T08:14:59.867Z,19.71
2022-11-20T08:20:02.694Z,19.71
2022-11-20T08:25:06.285Z,19.71
2022-11-20T08:30:12.383Z,19.70
2022-11-20T08:35:15.162Z,19.69
2022-11-20T08:40:19.692Z,19.72
2022-11-20T08:45:24.270Z,18.05
2022-11-20T08:50:27.081Z,16.47
2022-11-20T08:55:29.834Z,15.18
2022-11-20T09:00:34.301Z,16.32
2022-11-20T09:05:37.142Z,17.18
2022-11-20T09:10:40.713Z,17.64
2022-11-20T09:15:44.775Z,17.94
2022-11-20T09:20:47.567Z,18.14
2022-11-20T09:25:50.371Z,18.29
2022-11-20T09:30:54.448Z,18.42
2022-11-20T09:35:57.196Z,18.53
2022-11-20T09:41:05.053Z,18.62
2022-11-20T09:46:16.888Z,18.67
2022-11-20T09:51:32.448Z,18.72
2022-11-20T09:56:39.836Z,18.78
2022-11-20T10:01:45.618Z,18.86
2022-11-20T10:07:30.681Z,18.97
2022-11-20T10:12:29.124Z,19.14
2022-11-20T10:18:00.931Z,19.29
2022-11-20T10:23:31.753Z,19.41
2022-11-20T10:28:57.162Z,19.56
2022-11-20T10:34:12.590Z,19.66
2022-11-20T10:39:25.016Z,19.79
2022-11-20T10:44:47.511Z,19.88
2022-11-20T10:49:55.170Z,19.96
2022-11-20T10:55:05.592Z,20.04
2022-11-20T11:00:10.981Z,20.12
2022-11-20T11:05:38.060Z,20.17
2022-11-20T11:10:48.487Z,20.23
2022-11-20T11:15:52.012Z,20.28
2022-11-20T11:20:57.130Z,20.31
2022-11-20T11:26:01.332Z,20.35
2022-11-20T11:31:04.151Z,20.37
2022-11-20T11:36:21.156Z,20.42
2022-11-20T11:41:27.811Z,20.45
2022-11-20T11:46:33.911Z,20.46
2022-11-20T11:51:47.893Z,20.50
2022-11-20T11:56:51.522Z,20.54
2022-11-20T12:01:59.658Z,20.56
2022-11-20T12:07:44.285Z,20.58
2022-11-20T12:12:42.196Z,20.60
2022-11-20T12:17:45.006Z,20.64
2022-11-20T12:22:57.950Z,20.66
2022-11-20T12:28:27.436Z,20.69
2022-11-20T12:33:56.811Z,20.74
2022-11-20T12:39:10.902Z,20.81
2022-11-20T12:44:46.366Z,20.93
2022-11-20T12:50:01.948Z,21.05
2022-11-20T12:55:19.011Z,21.21
2022-11-20T13:00:23.647Z,21.36
2022-11-20T13:05:33.505Z,21.48
2022-11-20T13:10:44.161Z,21.52
2022-11-20T13:15:56.853Z,21.57
2022-11-20T13:20:59.765Z,21.60
2022-11-20T13:26:16.889Z,21.63
2022-11-20T13:31:32.573Z,21.68
2022-11-20T13:36:37.475Z,21.74
2022-11-20T13:41:42.296Z,21.75
2022-11-20T13:46:47.177Z,21.73
2022-11-20T13:51:52.586Z,21.73
2022-11-20T13:57:06.686Z,21.74
2022-11-20T14:02:15.235Z,21.73
2022-11-20T14:07:19.907Z,21.73
2022-11-20T14:12:29.338Z,21.72
2022-11-20T14:17:34.148Z,21.73
2022-11-20T14:22:37.494Z,21.69
2022-11-20T14:27:44.064Z,21.68
2022-11-20T14:32:49.733Z,21.66
2022-11-20T14:37:53.361Z,21.69
2022-11-20T14:42:57.753Z,21.72
2022-11-20T14:48:01.885Z,21.75
2022-11-20T14:53:04.708Z,21.82
2022-11-20T14:58:23.276Z,21.88
2022-11-20T15:03:33.717Z,21.96
2022-11-20T15:08:36.716Z,22.02
2022-11-20T15:13:41.440Z,22.08
2022-11-20T15:18:44.243Z,22.14
2022-11-20T15:23:47.135Z,22.18
2022-11-20T15:28:51.527Z,22.25
2022-11-20T15:33:54.327Z,22.28
2022-11-20T15:38:57.096Z,22.32
2022-11-20T15:44:01.234Z,22.37
2022-11-20T15:49:04.468Z,22.42
2022-11-20T15:54:12.643Z,22.48
2022-11-20T15:59:17.217Z,22.52
2022-11-20T16:04:20.786Z,22.56
2022-11-20T16:09:23.830Z,22.60
2022-11-20T16:14:45.571Z,22.64
2022-11-20T16:19:48.382Z,22.70
2022-11-20T16:24:51.937Z,22.76
2022-11-20T16:29:56.064Z,22.80
2022-11-20T16:34:58.902Z,22.84
2022-11-20T16:40:01.640Z,22.89
2022-11-20T16:45:06.875Z,22.95
2022-11-20T16:50:10.663Z,22.99
2022-11-20T16:55:13.523Z,23.05
2022-11-20T17:00:18.061Z,23.11
2022-11-20T17:05:20.812Z,23.15
2022-11-20T17:10:23.873Z,23.21
2022-11-20T17:15:27.961Z,23.27
2022-11-20T17:20:32.259Z,23.27
2022-11-20T17:25:35.682Z,23.31
2022-11-20T17:30:39.900Z,23.36
2022-11-20T17:35:42.647Z,23.39
2022-11-20T17:40:46.246Z,23.39
2022-11-20T17:45:50.510Z,23.45
2022-11-20T17:50:53.318Z,23.51
2022-11-20T17:56:14.254Z,23.52
2022-11-20T18:01:19.228Z,23.54
2022-11-20T18:06:23.937Z,23.56
2022-11-20T18:11:28.687Z,23.54
2022-11-20T18:16:35.342Z,23.55
2022-11-20T18:21:38.639Z,23.51
2022-11-20T18:26:44.450Z,23.49
2022-11-20T18:31:48.913Z,23.47
2022-11-20T18:36:51.755Z,23.47
2022-11-20T18:42:12.057Z,23.45
2022-11-20T18:47:18.297Z,23.40
2022-11-20T18:52:23.474Z,23.37
2022-11-20T18:57:28.427Z,23.36
2022-11-20T19:02:36.603Z,23.34
2022-11-20T19:07:44.138Z,23.34
2022-11-20T19:12:47.029Z,23.32
2022-11-20T19:17:51.978Z,23.34
2022-11-20T19:22:54.919Z,23.36
2022-11-20T19:27:57.706Z,23.39
2022-11-20T19:33:01.915Z,23.39
2022-11-20T19:38:05.729Z,23.37
2022-11-20T19:43:08.615Z,23.37
2022-11-20T19:48:12.891Z,23.36
2022-11-20T19:53:15.811Z,23.37
2022-11-20T19:58:18.849Z,23.37
2022-11-20T20:03:23.296Z,23.37
2022-11-20T20:08:26.213Z,23.36
2022-11-20T20:13:29.046Z,23.36
2022-11-20T20:18:33.131Z,23.36
2022-11-20T20:23:36.476Z,23.35
2022-11-20T20:28:40.257Z,23.36
2022-11-20T20:33:45.311Z,23.37
2022-11-20T20:38:48.619Z,23.36
2022-11-20T20:44:09.133Z,23.34
2022-11-20T20:49:13.985Z,23.35
2022-11-20T20:54:16.908Z,23.35
2022-11-20T20:59:19.722Z,23.33
2022-11-20T21:04:24.127Z,23.33
2022-11-20T21:09:27.041Z,23.35
2022-11-20T21:14:29.819Z,23.36
2022-11-20T21:19:34.286Z,23.32
2022-11-20T21:24:37.821Z,23.29
2022-11-20T21:29:40.593Z,23.27
2022-11-20T21:34:44.734Z,23.29
2022-11-20T21:39:51.714Z,23.25
2022-11-20T21:44:54.473Z,23.25
2022-11-20T21:49:58.777Z,23.25
2022-11-20T21:55:01.573Z,23.23
2022-11-20T22:00:06.497Z,23.26
2022-11-20T22:05:14.561Z,23.25
2022-11-20T22:10:18.830Z,23.23
2022-11-20T22:15:45.837Z,23.19
2022-11-20T22:20:45.837Z,23.20
2022-11-20T22:25:48.691Z,23.21
2022-11-20T22:30:51.487Z,23.20
2022-11-20T22:36:00.886Z,23.18
2022-11-20T22:41:04.669Z,23.19
2022-11-20T22:46:08.963Z,23.17
2022-11-20T22:51:15.604Z,23.18
2022-11-20T22:56:19.233Z,23.18
2022-11-20T23:01:23.562Z,23.17
2022-11-20T23:06:28.117Z,23.18
2022-11-20T23:11:32.642Z,23.17
2022-11-20T23:16:36.142Z,23.15
2022-11-20T23:21:42.164Z,23.16
2022-11-20T23:26:46.921Z,23.15
2022-11-20T23:31:49.660Z,23.19
2022-11-20T23:36:53.881Z,23.20
2022-11-20T23:41:56.629Z,23.21
2022-11-20T23:46:59.431Z,23.17
2022-11-20T23:52:03.659Z,23.11
2022-11-20T23:57:06.446Z,23.06
